Time;durP1;ratioP1;P1;durP2;ratioP2;P2;SDS_P1;SDS_P2;PMS_P1;PMS_P2;Temp;Humidity;BMP_temperature;BMP_pressure;BME280_temperature;BME280_humidity;BME280_pressure;Samples;Min_cycle;Max_cycle;Signal;HPM_P1;HPM_P2
2023/01/04 00:02:28;;;;;;;24.10;19.63;;;1.70;99.90;;;;;;6186098;23;20263;-75
2023/01/04 00:04:56;;;;;;;23.27;19.20;;;1.60;99.90;;;;;;6185744;23;20260;-75
2023/01/04 00:07:25;;;;;;;25.17;19.57;;;1.60;99.90;;;;;;6185937;23;20264;-79
2023/01/04 00:09:53;;;;;;;23.80;19.23;;;1.70;99.90;;;;;;6185485;23;20268;-76
2023/01/04 00:12:21;;;;;;;25.40;20.07;;;1.80;99.90;;;;;;6185758;23;20533;-75
2023/01/04 00:14:49;;;;;;;24.80;19.77;;;1.80;99.90;;;;;;6185883;23;20177;-74
2023/01/04 00:17:18;;;;;;;25.33;20.07;;;1.90;99.90;;;;;;6185444;23;20215;-75
2023/01/04 00:19:47;;;;;;;23.27;19.30;;;2.00;99.90;;;;;;6186361;23;20183;-76
2023/01/04 00:22:15;;;;;;;23.27;19.27;;;2.00;99.90;;;;;;6185108;23;20219;-77
2023/01/04 00:24:43;;;;;;;24.73;19.67;;;2.00;99.90;;;;;;6185768;23;20181;-76
2023/01/04 00:27:11;;;;;;;23.23;18.87;;;2.10;99.90;;;;;;6185369;23;20658;-76
2023/01/04 00:29:39;;;;;;;22.00;18.90;;;2.10;99.90;;;;;;6185559;23;20267;-79
2023/01/04 00:32:07;;;;;;;22.40;19.17;;;2.10;99.90;;;;;;6185379;23;20181;-75
2023/01/04 00:34:36;;;;;;;21.73;18.00;;;2.20;99.90;;;;;;6184764;23;20231;-74
2023/01/04 00:37:05;;;;;;;21.53;17.73;;;2.10;99.90;;;;;;6185056;23;20541;-77
2023/01/04 00:39:33;;;;;;;20.50;17.50;;;2.10;99.90;;;;;;6184757;23;20370;-77
2023/01/04 00:42:05;;;;;;;22.80;17.90;;;2.20;99.90;;;;;;6184928;23;20187;-76
2023/01/04 00:44:34;;;;;;;19.17;16.67;;;2.20;99.90;;;;;;6185260;23;20546;-76
2023/01/04 00:47:04;;;;;;;21.60;18.23;;;2.20;99.90;;;;;;6185406;23;20268;-74
2023/01/04 00:49:32;;;;;;;21.03;17.47;;;2.20;99.90;;;;;;6185482;23;20166;-75
2023/01/04 00:52:02;;;;;;;21.70;17.97;;;2.10;99.90;;;;;;6184653;23;20559;-78
2023/01/04 00:54:30;;;;;;;19.60;17.50;;;2.20;99.90;;;;;;6185460;23;20192;-80
2023/01/04 00:57:00;;;;;;;20.27;17.13;;;2.20;99.90;;;;;;6184868;23;20240;-76
2023/01/04 00:59:28;;;;;;;20.20;16.73;;;2.20;99.90;;;;;;6184837;23;20677;-75
2023/01/04 01:01:57;;;;;;;19.93;16.73;;;2.20;99.90;;;;;;6185434;23;20218;-77
2023/01/04 01:04:25;;;;;;;19.93;17.40;;;2.20;99.90;;;;;;6185647;23;20181;-77
2023/01/04 01:06:53;;;;;;;21.03;18.17;;;2.10;99.90;;;;;;6185288;23;20197;-79
2023/01/04 01:09:26;;;;;;;21.00;17.87;;;2.10;99.90;;;;;;6185667;23;20202;-76
2023/01/04 01:11:54;;;;;;;21.57;17.93;;;2.00;99.90;;;;;;6185401;23;20181;-73
2023/01/04 01:14:24;;;;;;;21.47;17.97;;;2.00;99.90;;;;;;6185829;23;20190;-74
2023/01/04 01:16:52;;;;;;;21.67;18.50;;;1.90;99.90;;;;;;6184459;23;20700;-75
2023/01/04 01:19:24;;;;;;;22.37;19.33;;;1.80;99.90;;;;;;6185527;23;20277;-76
2023/01/04 01:21:52;;;;;;;20.47;17.27;;;1.80;99.90;;;;;;6184865;23;20188;-74
2023/01/04 01:24:21;;;;;;;18.57;16.47;;;1.70;99.90;;;;;;6184475;23;20216;-79
2023/01/04 01:26:50;;;;;;;21.33;18.33;;;1.60;99.90;;;;;;6184067;23;20709;-74
2023/01/04 01:29:18;;;;;;;20.47;18.27;;;1.60;99.90;;;;;;6184574;23;20181;-73
2023/01/04 01:31:48;;;;;;;21.43;18.47;;;1.40;99.90;;;;;;6184289;23;20189;-77
2023/01/04 01:34:18;;;;;;;23.37;18.30;;;1.50;99.90;;;;;;6185133;23;20235;-74
2023/01/04 01:36:46;;;;;;;23.23;18.63;;;1.40;99.90;;;;;;6185359;23;20268;-77
2023/01/04 01:39:14;;;;;;;23.87;19.10;;;1.40;99.90;;;;;;6186815;23;20205;-75
2023/01/04 01:41:43;;;;;;;22.87;18.60;;;1.40;99.90;;;;;;6186550;23;20181;-77
2023/01/04 01:44:44;;;;;;;25.33;19.60;;;1.30;99.90;;;;;;6186209;23;20191;-75
2023/01/04 01:47:15;;;;;;;25.13;19.90;;;1.20;99.90;;;;;;6186195;23;20236;-76
2023/01/04 01:49:45;;;;;;;23.87;18.13;;;1.20;99.90;;;;;;6188813;23;20516;-75
2023/01/04 01:52:17;;;;;;;24.27;18.90;;;1.20;99.90;;;;;;6185305;23;20200;-76
2023/01/04 01:54:48;;;;;;;23.07;18.00;;;1.20;99.90;;;;;;6186262;23;20188;-76
2023/01/04 01:57:22;;;;;;;21.27;17.73;;;1.10;99.90;;;;;;6190467;23;20181;-74
2023/01/04 01:59:54;;;;;;;20.93;17.00;;;1.10;99.90;;;;;;6189349;23;20185;-76
2023/01/04 02:02:23;;;;;;;21.53;17.03;;;1.00;99.90;;;;;;6190878;23;20161;-77
2023/01/04 02:04:52;;;;;;;21.33;17.60;;;1.00;99.90;;;;;;6184857;23;20219;-75
2023/01/04 02:07:28;;;;;;;19.67;16.47;;;1.00;99.90;;;;;;6184794;23;20237;-75
2023/01/04 02:09:58;;;;;;;20.20;16.13;;;0.90;99.90;;;;;;6184482;23;20193;-74
2023/01/04 02:12:26;;;;;;;22.03;17.83;;;0.90;99.90;;;;;;6184426;23;20172;-74
2023/01/04 02:14:54;;;;;;;19.73;17.23;;;0.90;99.90;;;;;;6184528;23;20550;-75
2023/01/04 02:17:37;;;;;;;21.13;16.07;;;0.90;99.90;;;;;;6184525;23;20177;-75
2023/01/04 02:20:31;;;;;;;21.80;17.13;;;0.80;99.90;;;;;;6184648;23;20204;-75
2023/01/04 02:23:27;;;;;;;20.50;16.40;;;0.80;99.90;;;;;;6184243;23;20200;-74
2023/01/04 02:26:29;;;;;;;20.77;16.00;;;0.70;99.90;;;;;;6183725;23;20426;-77
2023/01/04 02:29:34;;;;;;;20.00;16.23;;;0.70;99.90;;;;;;6161249;23;20639;-74
2023/01/04 02:32:10;;;;;;;20.23;15.93;;;0.70;99.90;;;;;;6174682;23;20420;-80
2023/01/04 02:34:46;;;;;;;21.50;16.77;;;0.70;99.90;;;;;;6184084;23;20700;-73
2023/01/04 02:37:24;;;;;;;22.83;16.67;;;0.70;99.90;;;;;;6186105;23;20164;-77
2023/01/04 02:40:03;;;;;;;22.17;17.00;;;0.60;99.90;;;;;;6186580;23;20255;-75
2023/01/04 02:45:31;;;;;;;37.00;14.53;;;0.50;99.90;;;;;;6188353;23;20664;-76
2023/01/04 02:50:52;;;;;;;67.03;15.57;;;0.20;99.90;;;;;;6174572;23;20419;-80
2023/01/04 02:53:23;;;;;;;34.93;15.73;;;0.20;99.90;;;;;;6186269;23;20463;-76
2023/01/04 02:55:58;;;;;;;36.73;15.50;;;0.20;99.90;;;;;;6186238;23;20451;-79
2023/01/04 02:58:42;;;;;;;68.90;17.10;;;0.20;99.90;;;;;;6186589;23;20745;-80
2023/01/04 03:07:08;;;;;;;219.37;24.70;;;0.40;99.90;;;;;;6185698;23;20427;-76
2023/01/04 03:09:41;;;;;;;151.50;22.73;;;0.50;99.90;;;;;;6186668;23;20501;-77
2023/01/04 03:12:34;;;;;;;151.30;22.83;;;0.60;99.90;;;;;;6185899;23;20408;-77
2023/01/04 03:15:10;;;;;;;172.83;23.37;;;0.70;99.90;;;;;;6206096;23;20408;-75
2023/01/04 03:17:44;;;;;;;224.73;24.67;;;0.80;99.90;;;;;;6186373;23;20396;-78
2023/01/04 03:20:17;;;;;;;228.47;28.97;;;1.00;99.90;;;;;;6185959;23;20197;-79
2023/01/04 03:37:14;;;;;;;44.37;19.07;;;1.50;99.90;;;;;;6186579;23;20165;-76
2023/01/04 03:48:35;;;;;;;23.97;18.03;;;1.60;99.90;;;;;;6185108;23;20188;-76
2023/01/04 03:51:13;;;;;;;23.20;17.67;;;1.70;99.90;;;;;;6185427;23;20264;-80
2023/01/04 03:53:55;;;;;;;26.43;18.70;;;1.70;99.90;;;;;;6186055;23;20169;-76
2023/01/04 03:56:26;;;;;;;27.03;18.80;;;1.80;99.90;;;;;;6184573;23;20233;-77
2023/01/04 03:58:54;;;;;;;32.77;21.93;;;1.90;99.90;;;;;;6185596;23;20165;-77
2023/01/04 04:01:26;;;;;;;29.43;21.07;;;2.00;99.90;;;;;;6185258;23;20464;-75
2023/01/04 04:09:28;;;;;;;35.23;23.47;;;2.30;99.90;;;;;;6186506;23;20165;-78
2023/01/04 04:11:57;;;;;;;34.40;23.77;;;2.40;99.90;;;;;;6185568;23;20557;-76
2023/01/04 04:14:25;;;;;;;35.93;23.67;;;2.50;99.90;;;;;;6184664;23;20181;-76
2023/01/04 04:16:56;;;;;;;32.80;22.20;;;2.50;99.90;;;;;;6185498;23;20188;-76
2023/01/04 04:19:24;;;;;;;35.20;23.13;;;2.50;99.90;;;;;;6184407;23;20193;-77
2023/01/04 04:21:52;;;;;;;48.30;24.80;;;2.60;99.90;;;;;;6185575;23;20185;-78
2023/01/04 04:24:23;;;;;;;45.90;24.07;;;2.60;99.90;;;;;;6184821;23;20188;-81
2023/01/04 04:26:53;;;;;;;52.60;24.10;;;2.60;99.90;;;;;;6185210;23;20176;-77
2023/01/04 04:29:23;;;;;;;49.23;23.93;;;2.60;99.90;;;;;;6185000;23;20181;-76
2023/01/04 04:31:52;;;;;;;54.77;25.10;;;2.60;99.90;;;;;;6185085;23;20177;-78
2023/01/04 04:34:20;;;;;;;56.53;24.17;;;2.70;99.90;;;;;;6185309;23;20213;-80
2023/01/04 04:36:48;;;;;;;87.47;25.23;;;2.60;99.90;;;;;;6185566;23;20181;-78
2023/01/04 04:39:16;;;;;;;128.27;25.63;;;2.60;99.90;;;;;;6185332;23;20181;-77
2023/01/04 04:41:46;;;;;;;52.50;24.93;;;2.60;99.90;;;;;;6184966;23;20192;-79
2023/01/04 04:44:18;;;;;;;55.93;23.23;;;2.50;99.90;;;;;;6185637;23;20181;-80
2023/01/04 04:46:47;;;;;;;58.13;23.53;;;2.50;99.90;;;;;;6185100;23;20597;-78
2023/01/04 04:49:16;;;;;;;65.80;24.00;;;2.40;99.90;;;;;;6185063;23;20180;-76
2023/01/04 04:51:45;;;;;;;47.77;23.70;;;2.40;99.90;;;;;;6185132;23;20204;-82
2023/01/04 04:54:17;;;;;;;49.80;23.27;;;2.30;99.90;;;;;;6185041;23;20181;-81
2023/01/04 04:56:45;;;;;;;60.20;22.43;;;2.30;99.90;;;;;;6185224;23;20172;-80
2023/01/04 04:59:14;;;;;;;51.47;22.13;;;2.20;99.90;;;;;;6185176;23;20181;-77
2023/01/04 05:01:42;;;;;;;49.80;21.63;;;2.10;99.90;;;;;;6184984;23;20285;-80
2023/01/04 05:04:15;;;;;;;50.77;21.93;;;2.10;99.90;;;;;;6185212;23;20522;-78
2023/01/04 05:06:44;;;;;;;55.50;25.40;;;2.10;99.90;;;;;;6184571;23;20231;-78
2023/01/04 05:09:12;;;;;;;54.57;20.10;;;2.00;99.90;;;;;;6184728;23;20641;-76
2023/01/04 05:14:27;;;;;;;58.03;21.03;;;1.90;99.90;;;;;;6184648;23;20168;-81
2023/01/04 05:16:57;;;;;;;59.93;21.40;;;1.80;99.90;;;;;;6185056;23;20204;-80
2023/01/04 05:19:25;;;;;;;64.27;21.33;;;1.80;99.90;;;;;;6184704;23;20183;-81
2023/01/04 05:21:53;;;;;;;65.30;22.00;;;1.70;99.90;;;;;;6184460;23;20279;-77
2023/01/04 05:24:21;;;;;;;54.97;21.10;;;1.70;99.90;;;;;;6184397;23;20207;-80
2023/01/04 05:26:49;;;;;;;51.13;20.57;;;1.70;99.90;;;;;;6185022;23;20185;-79
2023/01/04 05:32:00;;;;;;;41.80;18.77;;;1.70;99.90;;;;;;6183948;23;20518;-80
2023/01/04 05:34:29;;;;;;;35.03;19.10;;;1.70;99.90;;;;;;6184087;23;20184;-79
2023/01/04 05:36:57;;;;;;;35.07;17.77;;;1.60;99.90;;;;;;6184787;23;20205;-80
2023/01/04 05:39:25;;;;;;;28.87;16.87;;;1.60;99.90;;;;;;6183575;23;20447;-79
2023/01/04 05:44:38;;;;;;;27.37;16.97;;;1.50;99.90;;;;;;6184891;23;20389;-77
2023/01/04 05:47:08;;;;;;;23.93;16.37;;;1.40;99.90;;;;;;6185007;23;20263;-77
2023/01/04 05:49:42;;;;;;;28.90;16.40;;;1.40;99.90;;;;;;6185291;23;20196;-77
2023/01/04 05:52:10;;;;;;;22.80;15.20;;;1.40;99.90;;;;;;6184483;23;20177;-78
2023/01/04 05:54:38;;;;;;;20.47;14.87;;;1.40;99.90;;;;;;6184577;23;20292;-79
2023/01/04 05:57:07;;;;;;;19.07;14.23;;;1.30;99.90;;;;;;6184494;23;20174;-77
2023/01/04 05:59:35;;;;;;;23.23;15.10;;;1.30;99.90;;;;;;6183537;23;20181;-81
2023/01/04 06:02:14;;;;;;;21.37;15.87;;;1.30;99.90;;;;;;6184433;23;20641;-77
2023/01/04 06:04:43;;;;;;;19.73;15.23;;;1.30;99.90;;;;;;6184846;23;20402;-80
2023/01/04 06:07:11;;;;;;;20.67;15.70;;;1.30;99.90;;;;;;6185187;23;20173;-80
2023/01/04 06:09:39;;;;;;;19.43;14.87;;;1.30;99.90;;;;;;6184463;23;20392;-80
2023/01/04 06:12:08;;;;;;;19.50;14.03;;;1.40;99.90;;;;;;6184136;23;20404;-77
2023/01/04 06:14:36;;;;;;;21.70;16.33;;;1.30;99.90;;;;;;6184733;23;20415;-80
2023/01/04 06:17:04;;;;;;;22.93;16.40;;;1.40;99.90;;;;;;6184467;23;20174;-81
2023/01/04 06:19:35;;;;;;;20.90;16.33;;;1.30;99.90;;;;;;6184790;23;20240;-81
2023/01/04 06:22:03;;;;;;;21.20;16.60;;;1.50;99.90;;;;;;6184598;23;20656;-83
2023/01/04 06:24:32;;;;;;;19.03;14.90;;;1.50;99.90;;;;;;6184340;23;20195;-81
2023/01/04 06:27:01;;;;;;;20.67;15.80;;;1.60;99.90;;;;;;6184665;23;20185;-78
2023/01/04 06:29:29;;;;;;;18.87;15.03;;;1.70;99.90;;;;;;6182698;23;20208;-76
2023/01/04 06:31:57;;;;;;;16.63;13.77;;;1.70;99.90;;;;;;6183377;23;20187;-77
2023/01/04 06:34:25;;;;;;;17.03;12.90;;;1.70;99.90;;;;;;6184418;23;20503;-81
2023/01/04 06:36:59;;;;;;;16.77;13.60;;;1.70;99.90;;;;;;6184822;23;20556;-79
2023/01/04 06:39:28;;;;;;;15.13;12.13;;;1.80;99.90;;;;;;6184794;23;20223;-77
2023/01/04 06:41:56;;;;;;;16.53;12.80;;;1.90;99.90;;;;;;6183938;23;20197;-79
2023/01/04 06:44:33;;;;;;;14.57;12.27;;;2.00;99.90;;;;;;6181165;23;20223;-76
2023/01/04 06:47:01;;;;;;;15.77;12.10;;;2.00;99.90;;;;;;6184219;23;20722;-76
2023/01/04 06:49:29;;;;;;;13.63;11.20;;;2.00;99.90;;;;;;6184067;23;20181;-76
2023/01/04 06:51:59;;;;;;;13.40;10.83;;;2.10;99.90;;;;;;6183703;23;20239;-76
2023/01/04 06:54:28;;;;;;;12.27;10.47;;;2.20;99.90;;;;;;6188081;23;20191;-76
2023/01/04 06:57:22;;;;;;;12.50;9.50;;;2.20;99.90;;;;;;6190842;23;20185;-75
2023/01/04 06:59:53;;;;;;;13.37;10.93;;;2.30;99.90;;;;;;6187869;23;20567;-74
2023/01/04 07:02:21;;;;;;;11.00;9.00;;;2.20;99.90;;;;;;6182828;23;20208;-78
2023/01/04 07:04:49;;;;;;;11.20;9.10;;;2.20;99.90;;;;;;6184042;23;20181;-79
2023/01/04 07:07:19;;;;;;;11.67;9.03;;;2.20;99.90;;;;;;6184267;23;20176;-79
2023/01/04 07:09:47;;;;;;;11.63;9.40;;;2.20;99.90;;;;;;6184503;23;20215;-79
2023/01/04 07:12:15;;;;;;;14.03;11.33;;;2.20;99.90;;;;;;6184000;23;20259;-81
2023/01/04 07:14:43;;;;;;;12.43;10.00;;;2.10;99.90;;;;;;6184021;23;20571;-79
2023/01/04 07:17:11;;;;;;;11.00;9.30;;;2.10;99.90;;;;;;6184172;23;20260;-79
2023/01/04 07:19:39;;;;;;;11.53;9.27;;;2.10;99.90;;;;;;6183888;23;20181;-78
2023/01/04 07:22:07;;;;;;;9.70;8.50;;;2.00;99.90;;;;;;6183600;23;20228;-78
2023/01/04 07:24:40;;;;;;;9.93;8.30;;;2.10;99.90;;;;;;6185775;23;20268;-77
2023/01/04 07:27:09;;;;;;;10.03;8.17;;;2.10;99.90;;;;;;6185835;23;20187;-81
2023/01/04 07:29:37;;;;;;;9.10;8.03;;;2.00;99.90;;;;;;6184817;23;20539;-76
2023/01/04 07:32:05;;;;;;;11.83;8.60;;;2.10;99.90;;;;;;6185853;23;20181;-79
2023/01/04 07:34:41;;;;;;;11.83;8.73;;;2.20;99.90;;;;;;6186026;23;20227;-79
2023/01/04 07:37:10;;;;;;;8.20;7.20;;;3.10;99.90;;;;;;6185576;23;20660;-81
2023/01/04 07:39:39;;;;;;;7.13;6.00;;;3.40;99.90;;;;;;6185391;23;20268;-79
2023/01/04 07:42:08;;;;;;;6.17;5.17;;;4.30;99.90;;;;;;6185403;23;20200;-76
2023/01/04 07:44:36;;;;;;;5.20;4.60;;;4.80;99.90;;;;;;6185800;23;20185;-79
2023/01/04 07:47:04;;;;;;;5.03;3.83;;;4.90;99.90;;;;;;6185920;23;20678;-76
2023/01/04 07:49:33;;;;;;;4.57;3.80;;;4.20;99.90;;;;;;6185456;23;20210;-76
2023/01/04 07:52:01;;;;;;;4.93;4.13;;;3.90;99.90;;;;;;6185630;23;20540;-78
2023/01/04 07:54:29;;;;;;;4.83;4.33;;;3.60;99.90;;;;;;6186156;23;20185;-80
2023/01/04 07:56:59;;;;;;;5.47;4.60;;;3.50;99.90;;;;;;6184983;23;20181;-80
2023/01/04 07:59:27;;;;;;;5.97;4.87;;;3.40;99.90;;;;;;6185127;23;20184;-79
2023/01/04 08:01:55;;;;;;;6.53;4.67;;;3.40;99.90;;;;;;6184464;23;20201;-79
2023/01/04 08:04:24;;;;;;;5.60;4.90;;;3.30;99.90;;;;;;6184563;23;20189;-78
2023/01/04 08:07:01;;;;;;;5.50;4.20;;;3.40;99.90;;;;;;6186323;23;20256;-75
2023/01/04 08:09:29;;;;;;;4.87;4.30;;;3.50;99.90;;;;;;6185969;23;20196;-76
2023/01/04 08:11:59;;;;;;;5.33;3.80;;;3.70;99.90;;;;;;6186801;23;20178;-78
2023/01/04 08:14:27;;;;;;;5.23;4.43;;;4.20;99.90;;;;;;6185524;23;20211;-74
2023/01/04 08:16:55;;;;;;;5.07;3.40;;;4.80;99.90;;;;;;6185853;23;20199;-77
2023/01/04 08:19:23;;;;;;;3.43;3.10;;;5.20;99.90;;;;;;6185894;23;20280;-77
2023/01/04 08:21:51;;;;;;;3.23;2.30;;;5.70;99.90;;;;;;6184853;23;20284;-76
2023/01/04 08:24:20;;;;;;;2.47;2.27;;;6.10;99.90;;;;;;6185861;23;20184;-76
2023/01/04 08:26:48;;;;;;;2.07;1.97;;;6.50;99.90;;;;;;6193256;23;20181;-74
2023/01/04 08:29:18;;;;;;;2.20;2.00;;;6.90;99.90;;;;;;6191192;23;20237;-76
2023/01/04 08:31:46;;;;;;;2.83;1.83;;;7.40;99.90;;;;;;6194309;23;20212;-76
2023/01/04 08:34:14;;;;;;;1.80;1.70;;;7.70;99.90;;;;;;6185924;23;20259;-77
2023/01/04 08:36:48;;;;;;;3.37;1.70;;;8.10;99.90;;;;;;6186446;23;20191;-74
2023/01/04 08:39:16;;;;;;;2.23;1.90;;;8.50;99.90;;;;;;6186289;23;20165;-75
2023/01/04 08:41:50;;;;;;;2.10;1.87;;;8.60;99.90;;;;;;6184938;23;20247;-73
2023/01/04 08:44:36;;;;;;;3.10;1.90;;;8.90;99.90;;;;;;6184024;23;20651;-76
2023/01/04 08:47:04;;;;;;;2.47;1.70;;;9.10;99.90;;;;;;6184545;23;20185;-76
2023/01/04 08:49:32;;;;;;;2.43;1.53;;;9.60;99.90;;;;;;6185750;23;20231;-76
2023/01/04 08:52:00;;;;;;;1.53;1.43;;;10.50;99.90;;;;;;6183646;23;20673;-77
2023/01/04 08:54:29;;;;;;;1.30;1.20;;;10.40;99.90;;;;;;6185406;23;20240;-77
2023/01/04 08:56:57;;;;;;;1.60;1.30;;;10.30;99.90;;;;;;6185079;23;20171;-76
2023/01/04 08:59:25;;;;;;;1.63;1.53;;;10.30;99.90;;;;;;6183850;23;20263;-78
2023/01/04 09:01:54;;;;;;;1.40;1.30;;;10.20;99.90;;;;;;6183539;23;20228;-76
2023/01/04 09:04:32;;;;;;;1.60;1.50;;;10.60;99.90;;;;;;6184947;23;20171;-76
2023/01/04 09:07:00;;;;;;;3.13;1.60;;;10.00;99.90;;;;;;6184518;23;20165;-75
2023/01/04 09:09:29;;;;;;;2.30;1.43;;;9.70;99.90;;;;;;6185066;23;20549;-76
2023/01/04 09:11:58;;;;;;;1.60;1.50;;;9.30;99.90;;;;;;6184416;23;20199;-76
2023/01/04 09:14:26;;;;;;;1.80;1.70;;;8.80;99.90;;;;;;6184174;23;20605;-77
2023/01/04 09:16:56;;;;;;;2.00;1.50;;;8.50;99.90;;;;;;6183282;23;20181;-76
2023/01/04 09:19:24;;;;;;;2.90;1.60;;;8.00;99.90;;;;;;6184406;23;20204;-78
2023/01/04 09:21:52;;;;;;;1.97;1.83;;;7.90;99.90;;;;;;6182821;23;20223;-79
2023/01/04 09:24:20;;;;;;;2.00;1.90;;;7.70;99.90;;;;;;6183070;23;20559;-79
2023/01/04 09:26:48;;;;;;;2.10;1.90;;;7.60;99.90;;;;;;6183566;23;20482;-79
2023/01/04 09:29:17;;;;;;;2.07;1.90;;;7.40;99.90;;;;;;6184274;23;20184;-78
2023/01/04 09:31:45;;;;;;;2.53;1.90;;;7.30;99.90;;;;;;6183957;23;20572;-78
2023/01/04 09:34:14;;;;;;;3.10;2.20;;;7.30;99.90;;;;;;6184117;23;20208;-80
2023/01/04 09:36:45;;;;;;;2.47;2.00;;;7.50;99.90;;;;;;6184011;23;20200;-75
2023/01/04 09:39:14;;;;;;;2.20;2.00;;;7.60;99.90;;;;;;6182397;23;20512;-79
2023/01/04 09:41:56;;;;;;;2.53;2.10;;;7.60;99.90;;;;;;6183426;23;20173;-76
2023/01/04 09:44:35;;;;;;;2.60;1.97;;;7.80;99.90;;;;;;6184139;23;20191;-79
2023/01/04 09:47:32;;;;;;;2.67;2.20;;;8.00;99.90;;;;;;6182298;23;20181;-75
2023/01/04 09:50:05;;;;;;;2.90;2.20;;;8.00;99.90;;;;;;6184749;23;20169;-80
2023/01/04 09:52:43;;;;;;;2.27;1.97;;;7.90;99.90;;;;;;6183311;23;20240;-80
2023/01/04 09:55:19;;;;;;;3.07;2.17;;;7.80;99.90;;;;;;6183879;23;20187;-78
2023/01/04 09:58:16;;;;;;;3.17;1.80;;;7.60;99.90;;;;;;6182953;23;20629;-79
2023/01/04 10:00:46;;;;;;;2.00;1.90;;;7.70;99.90;;;;;;6182293;23;20169;-80
2023/01/04 10:03:19;;;;;;;2.28;1.98;;;7.70;99.90;;;;;;6183739;23;20710;-74
2023/01/04 10:05:51;;;;;;;2.13;1.87;;;7.70;99.90;;;;;;6183058;23;20216;-78
2023/01/04 10:08:19;;;;;;;2.60;2.10;;;7.90;99.90;;;;;;6182411;23;20950;-81
2023/01/04 10:10:51;;;;;;;2.20;2.00;;;8.10;99.90;;;;;;6182861;23;20449;-79
2023/01/04 10:13:31;;;;;;;4.60;1.90;;;8.10;99.90;;;;;;6181990;23;20177;-78
2023/01/04 10:16:11;;;;;;;2.13;1.80;;;8.20;99.90;;;;;;6182094;23;20180;-73
2023/01/04 10:18:53;;;;;;;2.10;1.90;;;8.40;99.90;;;;;;6187979;23;20172;-79
2023/01/04 10:21:46;;;;;;;2.27;1.70;;;8.40;99.90;;;;;;6189499;23;20189;-76
2023/01/04 10:24:30;;;;;;;1.90;1.70;;;8.50;99.90;;;;;;6191716;23;20203;-78
2023/01/04 10:27:02;;;;;;;3.80;1.73;;;8.70;99.90;;;;;;6191688;23;20224;-79
2023/01/04 10:29:40;;;;;;;1.97;1.80;;;8.80;99.90;;;;;;6189351;23;20184;-79
2023/01/04 10:32:17;;;;;;;2.37;1.80;;;8.80;99.90;;;;;;6183611;23;20965;-81
2023/01/04 10:34:46;;;;;;;2.00;1.80;;;8.80;99.90;;;;;;6183275;23;20196;-80
2023/01/04 10:37:20;;;;;;;1.87;1.70;;;9.00;99.90;;;;;;6181491;23;20189;-76
2023/01/04 10:39:54;;;;;;;2.60;1.63;;;9.20;99.90;;;;;;6183943;23;20161;-77
2023/01/04 10:42:32;;;;;;;2.63;1.77;;;9.60;99.90;;;;;;6183628;23;20399;-76
2023/01/04 10:45:13;;;;;;;4.13;1.53;;;10.20;99.90;;;;;;6181986;23;20168;-77
2023/01/04 10:47:56;;;;;;;2.03;1.50;;;10.90;99.90;;;;;;6184063;23;20235;-77
2023/01/04 10:50:30;;;;;;;2.43;1.60;;;11.10;99.90;;;;;;6182788;23;20169;-78
2023/01/04 10:53:04;;;;;;;1.73;1.63;;;11.30;99.90;;;;;;6182558;23;20493;-80
2023/01/04 10:55:41;;;;;;;1.90;1.70;;;10.90;99.90;;;;;;6185736;23;20187;-76
2023/01/04 10:58:38;;;;;;;2.13;1.73;;;10.70;99.90;;;;;;6185686;23;20523;-78
2023/01/04 11:01:11;;;;;;;2.13;1.70;;;10.20;99.90;;;;;;6186697;23;20165;-78
2023/01/04 11:03:46;;;;;;;3.60;1.60;;;9.90;99.90;;;;;;6186541;23;20637;-76
2023/01/04 11:06:17;;;;;;;2.00;1.80;;;9.70;99.90;;;;;;6185752;23;20588;-79
2023/01/04 11:08:51;;;;;;;2.17;1.50;;;9.60;99.90;;;;;;6185206;23;20515;-79
2023/01/04 11:11:23;;;;;;;2.40;1.83;;;9.30;99.90;;;;;;6197528;23;20200;-77
2023/01/04 11:13:53;;;;;;;3.20;1.87;;;9.20;99.90;;;;;;6191079;23;20169;-77
2023/01/04 11:16:21;;;;;;;4.20;1.90;;;9.20;99.90;;;;;;6190313;23;20601;-75
2023/01/04 11:18:51;;;;;;;3.33;2.10;;;9.00;99.90;;;;;;6185244;23;20185;-76
2023/01/04 11:21:26;;;;;;;1.87;1.70;;;9.00;99.90;;;;;;6185113;23;20668;-75
2023/01/04 11:23:58;;;;;;;2.83;1.80;;;9.00;99.90;;;;;;6184339;23;20658;-75
2023/01/04 11:26:48;;;;;;;1.70;1.60;;;9.00;99.90;;;;;;6185480;23;20257;-75
2023/01/04 11:29:32;;;;;;;2.43;2.00;;;9.00;99.90;;;;;;6185362;23;20260;-79
2023/01/04 11:32:03;;;;;;;4.67;1.87;;;8.90;99.90;;;;;;6184551;23;20172;-75
2023/01/04 11:34:45;;;;;;;4.33;2.83;;;9.10;99.90;;;;;;6186224;23;20164;-77
2023/01/04 11:37:25;;;;;;;1.83;1.50;;;9.00;99.90;;;;;;6184099;23;20177;-74
2023/01/04 11:40:28;;;;;;;1.53;1.43;;;9.00;99.90;;;;;;6186554;23;20255;-75
2023/01/04 11:43:12;;;;;;;1.23;1.10;;;9.10;99.90;;;;;;6184503;23;20494;-76
2023/01/04 11:45:40;;;;;;;1.50;1.40;;;9.10;99.90;;;;;;6185393;23;20256;-78
2023/01/04 11:48:15;;;;;;;6.13;5.17;;;9.00;99.90;;;;;;6184324;23;20629;-77
2023/01/04 11:50:46;;;;;;;4.30;2.67;;;9.10;99.90;;;;;;6189987;23;20184;-76
2023/01/04 11:53:26;;;;;;;5.67;3.60;;;9.10;99.90;;;;;;6184427;23;20177;-75
2023/01/04 11:56:13;;;;;;;1.40;1.30;;;9.10;99.90;;;;;;6183610;23;20200;-75
2023/01/04 11:58:43;;;;;;;1.37;1.20;;;9.10;99.90;;;;;;6183203;23;20215;-76
2023/01/04 12:01:23;;;;;;;3.27;1.93;;;9.10;99.90;;;;;;6183795;23;20259;-75
2023/01/04 12:03:51;;;;;;;12.33;7.80;;;9.20;99.90;;;;;;6182701;23;20247;-73
2023/01/04 12:06:24;;;;;;;1.57;1.33;;;9.50;99.90;;;;;;6181695;23;20558;-75
2023/01/04 12:08:53;;;;;;;2.40;1.30;;;9.70;99.90;;;;;;6184788;23;20173;-77
2023/01/04 12:11:28;;;;;;;6.97;3.23;;;9.60;99.90;;;;;;6185783;23;20236;-76
2023/01/04 12:13:58;;;;;;;3.00;1.50;;;9.60;99.90;;;;;;6183182;23;20171;-76
2023/01/04 12:16:44;;;;;;;2.13;1.30;;;9.50;99.90;;;;;;6184975;23;20184;-75
2023/01/04 12:19:15;;;;;;;2.83;1.10;;;9.50;99.90;;;;;;6185131;23;20169;-75
2023/01/04 12:21:47;;;;;;;2.83;1.40;;;9.50;99.90;;;;;;6185138;23;20630;-76
2023/01/04 12:24:19;;;;;;;1.73;1.30;;;9.40;99.90;;;;;;6184416;23;20193;-75
2023/01/04 12:26:50;;;;;;;2.40;1.07;;;9.30;99.90;;;;;;6183307;23;20271;-75
2023/01/04 12:29:56;;;;;;;1.00;0.90;;;9.30;99.90;;;;;;6179406;23;20181;-75
2023/01/04 12:32:43;;;;;;;2.80;1.53;;;9.20;99.90;;;;;;6091572;23;20186;-77
2023/01/04 12:36:00;;;;;;;1.23;1.00;;;9.20;99.90;;;;;;6180027;23;20200;-76
2023/01/04 12:38:59;;;;;;;1.80;1.47;;;9.20;99.90;;;;;;6183902;23;20166;-78
2023/01/04 12:42:18;;;;;;;1.50;1.23;;;9.20;99.90;;;;;;6185622;23;20224;-76
2023/01/04 12:45:16;;;;;;;3.83;2.20;;;9.20;99.90;;;;;;6185208;23;20206;-80
2023/01/04 12:51:22;;;;;;;5.87;3.03;;;9.30;99.90;;;;;;6184219;23;20211;-75
2023/01/04 12:54:02;;;;;;;4.83;1.50;;;9.30;99.90;;;;;;6184493;23;20664;-76
2023/01/04 12:57:11;;;;;;;2.97;1.70;;;9.30;99.90;;;;;;6184534;23;20192;-75
2023/01/04 12:59:54;;;;;;;3.37;1.40;;;9.30;99.90;;;;;;6182974;23;20231;-76
2023/01/04 13:02:25;;;;;;;3.00;1.53;;;9.40;99.90;;;;;;6185598;23;20240;-75
2023/01/04 13:05:01;;;;;;;2.90;1.00;;;9.40;99.90;;;;;;6185245;23;20205;-77
2023/01/04 13:07:52;;;;;;;5.23;3.40;;;9.40;99.90;;;;;;6184323;23;20184;-76
2023/01/04 13:10:28;;;;;;;1.40;1.17;;;9.40;99.90;;;;;;6185362;23;20231;-75
2023/01/04 13:13:08;;;;;;;1.73;1.03;;;9.50;99.90;;;;;;6184833;23;20188;-77
2023/01/04 13:15:45;;;;;;;1.73;1.10;;;9.50;99.90;;;;;;6185041;23;20168;-75
2023/01/04 13:18:34;;;;;;;1.47;1.20;;;9.50;99.90;;;;;;6185989;23;20227;-76
2023/01/04 13:21:04;;;;;;;2.53;1.30;;;9.50;99.90;;;;;;6186705;23;20165;-77
2023/01/04 13:23:32;;;;;;;1.37;1.20;;;9.50;99.90;;;;;;6183524;23;20239;-75
2023/01/04 13:26:35;;;;;;;2.67;1.30;;;9.60;99.90;;;;;;6186317;23;20208;-76
2023/01/04 13:29:20;;;;;;;2.40;1.70;;;9.60;99.90;;;;;;6185721;23;20233;-76
2023/01/04 13:31:52;;;;;;;2.50;1.10;;;9.60;99.90;;;;;;6183337;23;20180;-75
2023/01/04 13:34:28;;;;;;;2.27;1.60;;;9.60;99.90;;;;;;6184549;23;20270;-75
2023/01/04 13:37:22;;;;;;;7.33;4.83;;;9.60;99.90;;;;;;6200613;23;20195;-77
2023/01/04 13:39:52;;;;;;;5.33;3.00;;;9.70;99.90;;;;;;6185136;23;20191;-78
2023/01/04 13:42:26;;;;;;;2.67;1.57;;;9.70;99.90;;;;;;6194064;23;20158;-75
2023/01/04 13:45:23;;;;;;;4.20;2.33;;;9.60;99.90;;;;;;6185641;23;20185;-76
2023/01/04 13:47:55;;;;;;;2.80;1.00;;;9.60;99.90;;;;;;6186846;23;20496;-75
2023/01/04 13:50:32;;;;;;;1.63;1.23;;;9.60;99.90;;;;;;6188114;23;20181;-75
2023/01/04 13:53:04;;;;;;;2.00;1.20;;;9.60;99.90;;;;;;6185108;23;20172;-77
2023/01/04 13:55:38;;;;;;;1.30;1.10;;;9.70;99.90;;;;;;6188693;23;20169;-76
2023/01/04 13:58:15;;;;;;;5.00;2.73;;;9.70;99.90;;;;;;6186288;23;20161;-74
2023/01/04 14:00:51;;;;;;;5.53;3.30;;;9.60;99.90;;;;;;6188101;23;20387;-77
2023/01/04 14:03:34;;;;;;;4.90;3.00;;;9.60;99.90;;;;;;6184657;23;20188;-75
2023/01/04 14:06:16;;;;;;;4.17;1.33;;;9.70;99.90;;;;;;6182378;23;20544;-77
2023/01/04 14:08:51;;;;;;;1.97;1.47;;;9.60;99.90;;;;;;6181381;23;20181;-77
2023/01/04 14:14:45;;;;;;;4.67;2.93;;;9.60;99.90;;;;;;6182941;23;20245;-77